Time;durP1;ratioP1;P1;durP2;ratioP2;P2;SDS_P1;SDS_P2;PMS_P1;PMS_P2;Temp;Humidity;BMP_temperature;BMP_pressure;BME280_temperature;BME280_humidity;BME280_pressure;Samples;Min_cycle;Max_cycle;Signal;HPM_P1;HPM_P2
2021/08/23 00:03:57;;;;;;;9.20;3.63;;;;;;;16.43;85.54;100849.78;20736571;28;20046;-72
2021/08/23 00:13:59;;;;;;;6.82;3.47;;;;;;;16.33;85.91;100848.38;20737788;28;20077;-72
2021/08/23 00:24:17;;;;;;;8.05;4.28;;;;;;;16.30;85.16;100848.50;20736200;28;20053;-71
2021/08/23 00:34:19;;;;;;;6.22;3.13;;;;;;;16.26;84.88;100852.13;20735998;28;20050;-72
2021/08/23 00:44:20;;;;;;;9.35;3.45;;;;;;;16.18;85.54;100844.44;20735387;28;20046;-72
2021/08/23 00:54:22;;;;;;;8.20;3.50;;;;;;;16.17;85.14;100838.28;20736930;28;20058;-72
2021/08/23 01:04:48;;;;;;;9.50;3.60;;;;;;;16.14;85.28;100848.09;20736970;28;20042;-71
2021/08/23 01:14:50;;;;;;;6.05;3.03;;;;;;;16.10;84.71;100854.41;20736146;28;20389;-71
2021/08/23 01:24:53;;;;;;;8.40;3.47;;;;;;;16.09;84.63;100842.94;20748333;28;20050;-71
2021/08/23 01:34:57;;;;;;;10.30;3.28;;;;;;;16.05;85.00;100843.97;20748679;28;20042;-72
2021/08/23 01:44:59;;;;;;;7.27;3.10;;;;;;;16.10;84.37;100834.13;20748288;28;20054;-72
2021/08/23 01:55:00;;;;;;;5.60;2.97;;;;;;;16.03;84.90;100834.38;20748024;28;20046;-71
2021/08/23 02:05:04;;;;;;;10.45;3.58;;;;;;;16.11;84.29;100833.22;20746352;28;20046;-71
2021/08/23 02:15:06;;;;;;;7.88;2.80;;;;;;;16.05;84.60;100828.13;20746045;28;20157;-72
2021/08/23 02:25:09;;;;;;;5.45;2.88;;;;;;;16.11;84.13;100832.34;20744619;28;20088;-72
2021/08/23 02:35:11;;;;;;;7.47;2.70;;;;;;;16.14;84.76;100821.66;20744161;28;20077;-73
2021/08/23 02:45:15;;;;;;;6.50;2.85;;;;;;;16.17;86.34;100822.44;20745150;28;20590;-70
2021/08/23 02:55:17;;;;;;;6.25;3.00;;;;;;;16.10;85.86;100812.16;20743650;28;20072;-72
2021/08/23 03:05:19;;;;;;;6.22;3.50;;;;;;;16.08;87.12;100828.03;20743204;28;20394;-71
2021/08/23 03:15:22;;;;;;;6.38;2.95;;;;;;;16.02;87.34;100822.06;20743406;28;20195;-72
2021/08/23 03:25:23;;;;;;;8.90;3.15;;;;;;;15.97;87.23;100832.78;20740732;28;20100;-72
2021/08/23 03:35:25;;;;;;;8.38;2.97;;;;;;;15.91;87.30;100827.69;20738683;28;20068;-72
2021/08/23 03:45:27;;;;;;;5.95;3.47;;;;;;;15.90;87.37;100825.94;20737758;28;20096;-72
2021/08/23 03:55:29;;;;;;;7.45;3.05;;;;;;;15.86;87.18;100826.97;20738265;28;20407;-72
2021/08/23 04:05:31;;;;;;;6.05;3.00;;;;;;;15.86;87.31;100832.25;20737397;28;20467;-72
2021/08/23 04:15:33;;;;;;;8.32;3.30;;;;;;;15.94;88.33;100835.50;20739364;28;20116;-72
2021/08/23 04:25:35;;;;;;;7.35;3.35;;;;;;;15.89;87.22;100826.88;20736927;28;20508;-71
2021/08/23 04:35:36;;;;;;;7.43;3.17;;;;;;;15.91;87.58;100846.19;20736112;28;20046;-72
2021/08/23 04:45:38;;;;;;;8.80;3.47;;;;;;;15.92;87.75;100841.78;20735803;28;20384;-72
2021/08/23 04:55:40;;;;;;;5.85;3.20;;;;;;;15.97;88.50;100860.97;20746067;28;20050;-71
2021/08/23 05:05:42;;;;;;;5.18;3.10;;;;;;;15.96;88.17;100865.41;20750685;28;20088;-71
2021/08/23 05:15:44;;;;;;;7.25;3.15;;;;;;;15.97;87.99;100874.19;20750846;28;20101;-70
2021/08/23 05:25:45;;;;;;;7.82;3.45;;;;;;;15.90;88.96;100873.47;20748881;28;20132;-70
2021/08/23 05:35:47;;;;;;;6.13;3.30;;;;;;;16.02;88.55;100870.47;20747582;28;20220;-70
2021/08/23 05:45:49;;;;;;;6.35;3.33;;;;;;;16.07;88.33;100870.34;20748803;28;20563;-71
2021/08/23 05:55:53;;;;;;;7.30;3.23;;;;;;;16.12;87.18;100874.56;20747482;28;20049;-70
2021/08/23 06:05:55;;;;;;;7.03;3.10;;;;;;;16.28;86.84;100877.59;20745238;28;20100;-69
2021/08/23 06:15:57;;;;;;;8.98;3.60;;;;;;;16.38;84.87;100875.50;20746179;28;20463;-70
2021/08/23 06:25:59;;;;;;;8.93;3.20;;;;;;;16.29;85.24;100889.91;20745180;28;20446;-69
2021/08/23 06:36:02;;;;;;;8.52;3.25;;;;;;;16.57;85.00;100891.66;20743423;28;20042;-70
2021/08/23 06:46:04;;;;;;;9.45;3.53;;;;;;;16.64;83.37;100888.75;20743547;28;20050;-69
2021/08/23 06:56:06;;;;;;;6.78;3.05;;;;;;;16.79;84.26;100894.50;20743310;28;20083;-69
2021/08/23 07:06:08;;;;;;;6.32;2.85;;;;;;;16.80;82.71;100888.28;20722543;28;20547;-69
2021/08/23 07:16:19;;;;;;;6.00;3.15;;;;;;;17.13;82.08;100889.75;20690903;28;20047;-69
2021/08/23 07:26:20;;;;;;;7.72;3.33;;;;;;;17.16;82.98;100889.66;20723460;28;20496;-69
2021/08/23 07:36:22;;;;;;;8.32;3.25;;;;;;;17.37;80.50;100897.75;20733928;28;20047;-69
2021/08/23 07:46:24;;;;;;;7.40;3.13;;;;;;;17.54;81.12;100882.13;20658434;28;20540;-70
2021/08/23 07:56:26;;;;;;;9.90;3.42;;;;;;;17.90;79.62;100887.84;20658324;28;20105;-72
2021/08/23 08:06:28;;;;;;;8.85;3.05;;;;;;;18.37;77.99;100881.63;20657659;28;20448;-71
2021/08/23 08:16:30;;;;;;;7.93;3.08;;;;;;;18.78;75.42;100879.06;20712555;28;20065;-70
2021/08/23 08:26:32;;;;;;;7.97;2.90;;;;;;;18.97;75.48;100880.00;20744879;28;20100;-69
2021/08/23 08:36:34;;;;;;;4.97;2.53;;;;;;;19.01;74.27;100878.09;20742354;28;20046;-69
2021/08/23 08:46:36;;;;;;;4.45;2.45;;;;;;;19.38;71.91;100888.84;20761552;28;20484;-69
2021/08/23 08:56:38;;;;;;;7.13;2.60;;;;;;;20.24;68.60;100893.75;20729246;28;20061;-69
2021/08/23 09:06:42;;;;;;;5.90;2.50;;;;;;;20.27;70.33;100900.72;20681299;28;20073;-69
2021/08/23 09:16:44;;;;;;;4.18;2.17;;;;;;;19.82;70.25;100909.03;20739361;28;20100;-70
2021/08/23 09:26:46;;;;;;;4.93;2.28;;;;;;;19.59;71.23;100902.94;20763479;28;20133;-70
2021/08/23 09:36:56;;;;;;;5.13;2.45;;;;;;;19.75;73.17;100916.44;20741899;28;20060;-69
2021/08/23 09:46:58;;;;;;;3.70;1.75;;;;;;;19.32;71.74;100925.44;20749056;28;20050;-69
2021/08/23 09:57:00;;;;;;;5.80;2.00;;;;;;;19.32;73.29;100936.91;20748721;28;20050;-69
2021/08/23 10:07:02;;;;;;;3.83;2.03;;;;;;;19.85;71.36;100941.66;20747264;28;20042;-70
2021/08/23 10:17:06;;;;;;;3.83;1.85;;;;;;;20.58;68.52;100945.34;20747131;28;20428;-70
2021/08/23 10:27:07;;;;;;;;;;;;;;;20.45;68.11;100942.38;20707117;28;20563;-70
2021/08/23 10:37:21;;;;;;;5.38;2.42;;;;;;;20.65;67.63;100946.78;20664996;28;19922;-69
2021/08/23 10:47:29;;;;;;;6.10;1.97;;;;;;;20.31;67.41;100938.66;20663302;28;20058;-71
2021/08/23 10:57:31;;;;;;;7.40;2.60;;;;;;;20.91;65.94;100918.88;20663176;28;20689;-69
2021/08/23 11:07:35;;;;;;;4.82;2.20;;;;;;;20.96;66.68;100916.81;20677492;28;20112;-69
2021/08/23 11:17:44;;;;;;;5.60;2.70;;;;;;;21.70;64.86;100913.91;20678481;28;20104;-70
2021/08/23 11:27:51;;;;;;;4.43;2.10;;;;;;;21.49;65.06;100915.88;20660148;28;20061;-69
2021/08/23 11:37:56;;;;;;;4.97;2.70;;;;;;;21.45;65.35;100919.66;20659536;28;20046;-69
2021/08/23 11:47:57;;;;;;;;;;;;;;;22.02;64.84;100913.94;20660019;28;20050;-70
2021/08/23 11:58:03;;;;;;;5.75;3.40;;;;;;;22.01;64.56;100902.41;20657798;28;19953;-69
2021/08/23 12:08:07;;;;;;;5.10;2.80;;;;;;;21.25;65.13;100907.34;20656625;28;20057;-70
2021/08/23 12:18:11;;;;;;;5.10;2.30;;;;;;;21.69;64.70;100893.50;20725766;28;20416;-70
2021/08/23 12:28:16;;;;;;;5.60;2.57;;;;;;;22.28;62.39;100889.38;20737928;28;20057;-69
2021/08/23 12:38:18;;;;;;;4.90;2.70;;;;;;;22.15;62.43;100875.00;20734591;28;20042;-68
2021/08/23 12:48:19;;;;;;;5.18;2.92;;;;;;;22.09;62.91;100871.81;20720622;28;20046;-70
2021/08/23 12:58:21;;;;;;;7.40;3.20;;;;;;;22.10;61.22;100877.03;20737053;28;20455;-69
2021/08/23 13:08:23;;;;;;;7.50;3.70;;;;;;;22.27;62.18;100866.28;20735335;28;20046;-70
2021/08/23 13:18:24;;;;;;;3.80;2.35;;;;;;;21.87;61.97;100864.13;20676980;28;20046;-70
2021/08/23 13:28:27;;;;;;;5.05;3.13;;;;;;;22.27;60.08;100854.75;20670168;28;20456;-70
2021/08/23 13:38:28;;;;;;;3.75;2.00;;;;;;;22.47;60.02;100857.16;20668505;28;20389;-70
2021/08/23 13:48:30;;;;;;;3.58;2.05;;;;;;;22.89;57.86;100846.72;20668765;28;20054;-70
2021/08/23 13:58:32;;;;;;;4.05;2.15;;;;;;;23.23;58.00;100835.72;20667882;28;20121;-70
2021/08/23 14:08:33;;;;;;;4.22;2.30;;;;;;;23.51;57.65;100831.31;20666294;28;20100;-69
2021/08/23 14:18:35;;;;;;;3.72;2.10;;;;;;;23.14;58.33;100836.31;20738312;28;20048;-70
2021/08/23 14:28:37;;;;;;;5.18;2.58;;;;;;;22.43;58.58;100831.59;20744917;28;20080;-70
2021/08/23 14:38:40;;;;;;;4.28;2.33;;;;;;;22.09;60.39;100840.66;20745551;28;20558;-70
2021/08/23 14:48:42;;;;;;;4.43;2.45;;;;;;;22.36;61.14;100842.69;20744576;28;20042;-70
2021/08/23 14:58:45;;;;;;;4.53;2.47;;;;;;;22.71;61.31;100844.19;20744251;28;20046;-69
2021/08/23 15:08:48;;;;;;;4.60;2.10;;;;;;;22.50;60.18;100846.28;20742245;28;20479;-70
2021/08/23 15:18:51;;;;;;;5.77;2.53;;;;;;;22.97;59.65;100845.31;20668809;28;20046;-69
2021/08/23 15:28:52;;;;;;;4.10;2.40;;;;;;;23.39;57.14;100829.44;20660814;28;20105;-70
2021/08/23 15:38:56;;;;;;;3.70;2.10;;;;;;;23.89;57.30;100838.75;20658105;28;20504;-70
2021/08/23 15:48:57;;;;;;;3.75;1.90;;;;;;;23.45;56.78;100834.38;20659147;28;20111;-71
2021/08/23 15:58:59;;;;;;;3.63;2.10;;;;;;;22.86;59.22;100841.56;20658961;28;20057;-70
2021/08/23 16:09:01;;;;;;;6.60;2.92;;;;;;;22.41;59.33;100851.31;20657575;28;20046;-71
2021/08/23 16:19:03;;;;;;;6.05;3.13;;;;;;;22.14;62.62;100859.94;20733890;28;20054;-70
2021/08/23 16:29:05;;;;;;;5.88;3.03;;;;;;;21.75;64.05;100866.53;20737164;28;20092;-70
2021/08/23 16:39:22;;;;;;;9.63;3.42;;;;;;;22.12;61.29;100853.81;20736453;28;20050;-71
2021/08/23 16:49:25;;;;;;;6.10;2.92;;;;;;;22.44;60.00;100862.66;20743559;28;20045;-70
2021/08/23 16:59:27;;;;;;;5.72;3.30;;;;;;;22.20;57.97;100880.06;20753425;28;20451;-70
2021/08/23 17:09:30;;;;;;;8.23;4.25;;;;;;;21.44;61.47;100879.78;20751255;28;20488;-69
2021/08/23 17:19:32;;;;;;;6.47;3.83;;;;;;;21.22;60.83;100896.88;20672920;28;20046;-69
2021/08/23 17:29:33;;;;;;;7.97;4.75;;;;;;;20.81;62.80;100908.75;20670455;28;20129;-68
2021/08/23 17:39:37;;;;;;;7.35;4.35;;;;;;;20.29;64.53;100913.94;20668680;28;20100;-67
2021/08/23 17:49:39;;;;;;;6.38;3.95;;;;;;;20.07;65.94;100933.53;20667966;28;20046;-69
2021/08/23 17:59:40;;;;;;;7.22;3.80;;;;;;;20.09;66.23;100945.00;20666878;28;20046;-68
2021/08/23 18:09:42;;;;;;;6.32;4.00;;;;;;;19.52;68.43;100948.47;20666436;28;20042;-69
2021/08/23 18:19:44;;;;;;;7.93;4.47;;;;;;;19.51;68.83;100958.22;20666687;28;20101;-69
2021/08/23 18:29:48;;;;;;;7.47;4.50;;;;;;;19.26;70.90;100965.50;20665404;28;20054;-69
2021/08/23 18:39:51;;;;;;;7.80;5.13;;;;;;;19.14;72.93;100980.19;20664495;28;20046;-69
2021/08/23 18:49:53;;;;;;;9.83;5.97;;;;;;;19.06;75.03;100988.44;20663799;28;20456;-69
2021/08/23 18:59:55;;;;;;;10.32;6.53;;;;;;;18.86;77.31;101006.97;20663490;28;20408;-69
2021/08/23 19:09:56;;;;;;;12.05;6.00;;;;;;;18.95;77.09;101030.50;20663157;28;20125;-69
2021/08/23 19:19:59;;;;;;;9.00;5.95;;;;;;;18.80;78.20;101039.06;20743650;28;20046;-69
2021/08/23 19:30:02;;;;;;;8.48;5.50;;;;;;;18.76;79.12;101058.69;20741578;28;20420;-69
2021/08/23 19:40:07;;;;;;;8.63;5.40;;;;;;;18.75;78.85;101067.56;20740958;28;20076;-69
2021/08/23 19:50:09;;;;;;;10.05;5.57;;;;;;;18.81;78.83;101072.63;20741011;28;20092;-69
2021/08/23 20:00:12;;;;;;;7.25;4.93;;;;;;;18.79;78.34;101083.31;20739878;28;20362;-70
2021/08/23 20:10:14;;;;;;;6.70;4.40;;;;;;;18.91;78.17;101084.63;20739769;28;20069;-70
2021/08/23 20:20:16;;;;;;;9.80;4.78;;;;;;;18.76;78.44;101085.22;20739597;28;20079;-69
2021/08/23 20:30:19;;;;;;;11.23;4.43;;;;;;;18.79;79.22;101095.72;20736254;28;20108;-69
2021/08/23 20:40:29;;;;;;;8.60;4.60;;;;;;;18.69;78.92;101096.06;20737729;28;20535;-69
2021/08/23 20:50:34;;;;;;;8.63;6.22;;;;;;;17.88;84.70;101112.25;20731047;28;20046;-69
2021/08/23 21:00:38;;;;;;;10.15;7.05;;;;;;;17.88;84.70;101111.38;20663437;28;20413;-69
2021/08/23 21:10:40;;;;;;;9.48;7.30;;;;;;;17.76;85.52;101120.59;20664185;28;20046;-69
2021/08/23 21:20:41;;;;;;;11.05;8.60;;;;;;;17.93;84.67;101122.69;20737636;28;20050;-69
2021/08/23 21:30:45;;;;;;;11.10;8.27;;;;;;;17.90;83.59;101130.72;20735760;28;20157;-69
2021/08/23 21:40:48;;;;;;;9.80;7.72;;;;;;;17.80;83.54;101137.25;20749904;28;20104;-70
2021/08/23 21:50:51;;;;;;;10.15;6.00;;;;;;;17.97;79.43;101132.28;20749947;28;20045;-69
2021/08/23 22:00:53;;;;;;;9.43;5.63;;;;;;;18.00;79.15;101126.84;20747992;28;20062;-69
2021/08/23 22:10:55;;;;;;;9.82;5.32;;;;;;;17.91;78.85;101122.72;20747723;28;20054;-70
2021/08/23 22:20:59;;;;;;;8.13;5.00;;;;;;;17.85;79.51;101116.78;20746350;28;20554;-70
2021/08/23 22:31:02;;;;;;;;;;;;;;;17.85;79.17;101132.69;20745556;28;20053;-70
2021/08/23 22:41:05;;;;;;;9.43;5.15;;;;;;;17.72;81.11;101141.91;20745205;28;19927;-70
2021/08/23 22:51:10;;;;;;;10.23;6.60;;;;;;;17.51;82.22;101132.91;20743644;28;20081;-69
2021/08/23 23:01:12;;;;;;;9.23;6.43;;;;;;;17.37;83.00;101136.84;20742256;28;20500;-69
2021/08/23 23:11:14;;;;;;;8.80;5.50;;;;;;;17.25;81.36;101141.66;20742154;28;20137;-69
2021/08/23 23:21:16;;;;;;;10.93;6.28;;;;;;;17.23;82.45;101136.44;20741509;28;20547;-70
2021/08/23 23:31:18;;;;;;;8.15;5.25;;;;;;;17.25;80.92;101136.38;20740427;28;20053;-69
2021/08/23 23:41:20;;;;;;;8.73;5.47;;;;;;;17.30;80.01;101135.34;20739738;28;20076;-69
2021/08/23 23:51:21;;;;;;;7.22;4.80;;;;;;;17.18;78.19;101136.56;20740054;28;20045;-70
